sensor_id;sensor_type;location;lat;lon;timestamp;P1;durP1;ratioP1;P2;durP2;ratioP2
5060;SDS011;2549;52.128;21.068;2023-08-21T00:02:05;16.90;;;14.17;;
5060;SDS011;2549;52.128;21.068;2023-08-21T00:04:32;21.03;;;12.90;;
5060;SDS011;2549;52.128;21.068;2023-08-21T00:06:59;17.50;;;11.87;;
5060;SDS011;2549;52.128;21.068;2023-08-21T00:09:26;18.27;;;13.40;;
5060;SDS011;2549;52.128;21.068;2023-08-21T00:11:53;15.40;;;12.93;;
5060;SDS011;2549;52.128;21.068;2023-08-21T00:14:20;17.23;;;13.50;;
5060;SDS011;2549;52.128;21.068;2023-08-21T00:16:47;17.20;;;12.90;;
5060;SDS011;2549;52.128;21.068;2023-08-21T00:19:14;14.17;;;12.50;;
5060;SDS011;2549;52.128;21.068;2023-08-21T00:21:40;15.53;;;13.33;;
5060;SDS011;2549;52.128;21.068;2023-08-21T00:24:08;18.80;;;12.67;;
5060;SDS011;2549;52.128;21.068;2023-08-21T00:26:35;21.33;;;13.50;;
5060;SDS011;2549;52.128;21.068;2023-08-21T00:29:02;20.03;;;13.73;;
5060;SDS011;2549;52.128;21.068;2023-08-21T00:31:29;22.43;;;13.50;;
5060;SDS011;2549;52.128;21.068;2023-08-21T00:33:55;15.17;;;13.67;;
5060;SDS011;2549;52.128;21.068;2023-08-21T00:36:22;15.27;;;12.13;;
5060;SDS011;2549;52.128;21.068;2023-08-21T00:38:49;16.63;;;14.93;;
5060;SDS011;2549;52.128;21.068;2023-08-21T00:41:16;15.07;;;13.47;;
5060;SDS011;2549;52.128;21.068;2023-08-21T00:43:43;24.40;;;13.47;;
5060;SDS011;2549;52.128;21.068;2023-08-21T00:46:10;16.77;;;13.80;;
5060;SDS011;2549;52.128;21.068;2023-08-21T00:48:37;14.03;;;12.63;;
5060;SDS011;2549;52.128;21.068;2023-08-21T00:51:04;15.23;;;12.47;;
5060;SDS011;2549;52.128;21.068;2023-08-21T00:53:33;15.97;;;13.40;;
5060;SDS011;2549;52.128;21.068;2023-08-21T00:56:00;13.43;;;11.93;;
5060;SDS011;2549;52.128;21.068;2023-08-21T00:58:27;14.57;;;13.00;;
5060;SDS011;2549;52.128;21.068;2023-08-21T01:00:54;14.90;;;13.50;;
5060;SDS011;2549;52.128;21.068;2023-08-21T01:03:21;32.27;;;13.50;;
5060;SDS011;2549;52.128;21.068;2023-08-21T01:05:48;16.43;;;12.87;;
5060;SDS011;2549;52.128;21.068;2023-08-21T01:08:24;18.60;;;13.87;;
5060;SDS011;2549;52.128;21.068;2023-08-21T01:11:15;14.00;;;12.33;;
5060;SDS011;2549;52.128;21.068;2023-08-21T01:16:40;20.57;;;13.97;;
5060;SDS011;2549;52.128;21.068;2023-08-21T01:19:13;17.30;;;12.80;;
5060;SDS011;2549;52.128;21.068;2023-08-21T01:22:04;16.00;;;13.00;;
5060;SDS011;2549;52.128;21.068;2023-08-21T01:24:31;14.20;;;12.80;;
5060;SDS011;2549;52.128;21.068;2023-08-21T01:26:58;16.27;;;12.57;;
5060;SDS011;2549;52.128;21.068;2023-08-21T01:29:24;15.53;;;13.73;;
5060;SDS011;2549;52.128;21.068;2023-08-21T01:32:40;19.00;;;13.20;;
5060;SDS011;2549;52.128;21.068;2023-08-21T01:34:58;16.57;;;14.20;;
5060;SDS011;2549;52.128;21.068;2023-08-21T01:37:26;16.27;;;14.53;;
5060;SDS011;2549;52.128;21.068;2023-08-21T01:39:54;15.40;;;13.80;;
5060;SDS011;2549;52.128;21.068;2023-08-21T01:42:24;23.73;;;14.17;;
5060;SDS011;2549;52.128;21.068;2023-08-21T01:44:51;15.70;;;14.00;;
5060;SDS011;2549;52.128;21.068;2023-08-21T01:47:18;14.90;;;13.30;;
5060;SDS011;2549;52.128;21.068;2023-08-21T01:49:45;16.43;;;13.70;;
5060;SDS011;2549;52.128;21.068;2023-08-21T01:52:12;15.73;;;14.03;;
5060;SDS011;2549;52.128;21.068;2023-08-21T01:54:39;27.87;;;15.43;;
5060;SDS011;2549;52.128;21.068;2023-08-21T01:57:05;14.63;;;13.13;;
5060;SDS011;2549;52.128;21.068;2023-08-21T01:59:32;18.20;;;13.70;;
5060;SDS011;2549;52.128;21.068;2023-08-21T02:01:59;15.13;;;13.10;;
5060;SDS011;2549;52.128;21.068;2023-08-21T02:04:26;22.00;;;14.70;;
5060;SDS011;2549;52.128;21.068;2023-08-21T02:06:53;19.27;;;13.30;;
5060;SDS011;2549;52.128;21.068;2023-08-21T02:09:20;21.73;;;13.77;;
5060;SDS011;2549;52.128;21.068;2023-08-21T02:11:46;17.70;;;14.77;;
5060;SDS011;2549;52.128;21.068;2023-08-21T02:14:13;19.57;;;14.00;;
5060;SDS011;2549;52.128;21.068;2023-08-21T02:16:40;14.63;;;13.07;;
5060;SDS011;2549;52.128;21.068;2023-08-21T02:19:07;17.53;;;13.40;;
5060;SDS011;2549;52.128;21.068;2023-08-21T02:21:34;15.63;;;13.90;;
5060;SDS011;2549;52.128;21.068;2023-08-21T02:24:03;15.00;;;13.40;;
5060;SDS011;2549;52.128;21.068;2023-08-21T02:26:30;14.00;;;12.50;;
5060;SDS011;2549;52.128;21.068;2023-08-21T02:28:57;17.43;;;14.97;;
5060;SDS011;2549;52.128;21.068;2023-08-21T02:31:24;14.60;;;13.20;;
5060;SDS011;2549;52.128;21.068;2023-08-21T02:33:51;14.97;;;13.37;;
5060;SDS011;2549;52.128;21.068;2023-08-21T02:36:18;17.57;;;13.20;;
5060;SDS011;2549;52.128;21.068;2023-08-21T02:38:44;23.80;;;15.50;;
5060;SDS011;2549;52.128;21.068;2023-08-21T02:41:11;18.53;;;14.40;;
5060;SDS011;2549;52.128;21.068;2023-08-21T02:43:41;18.73;;;14.07;;
5060;SDS011;2549;52.128;21.068;2023-08-21T02:46:08;14.67;;;13.00;;
5060;SDS011;2549;52.128;21.068;2023-08-21T02:48:35;17.40;;;14.40;;
5060;SDS011;2549;52.128;21.068;2023-08-21T02:51:02;19.33;;;14.57;;
5060;SDS011;2549;52.128;21.068;2023-08-21T02:53:31;14.80;;;13.33;;
5060;SDS011;2549;52.128;21.068;2023-08-21T02:55:58;20.30;;;14.23;;
5060;SDS011;2549;52.128;21.068;2023-08-21T02:58:24;16.00;;;14.33;;
5060;SDS011;2549;52.128;21.068;2023-08-21T03:00:51;16.50;;;14.00;;
5060;SDS011;2549;52.128;21.068;2023-08-21T03:03:19;19.53;;;14.03;;
5060;SDS011;2549;52.128;21.068;2023-08-21T03:05:45;21.77;;;14.13;;
5060;SDS011;2549;52.128;21.068;2023-08-21T03:08:15;19.47;;;15.00;;
5060;SDS011;2549;52.128;21.068;2023-08-21T03:10:43;24.17;;;15.57;;
5060;SDS011;2549;52.128;21.068;2023-08-21T03:13:10;18.70;;;14.90;;
5060;SDS011;2549;52.128;21.068;2023-08-21T03:15:36;16.70;;;14.00;;
5060;SDS011;2549;52.128;21.068;2023-08-21T03:18:03;16.20;;;14.50;;
5060;SDS011;2549;52.128;21.068;2023-08-21T03:20:33;20.40;;;15.03;;
5060;SDS011;2549;52.128;21.068;2023-08-21T03:23:00;18.33;;;15.33;;
5060;SDS011;2549;52.128;21.068;2023-08-21T03:25:27;19.53;;;14.77;;
5060;SDS011;2549;52.128;21.068;2023-08-21T03:27:54;16.43;;;14.30;;
5060;SDS011;2549;52.128;21.068;2023-08-21T03:30:21;17.53;;;15.23;;
5060;SDS011;2549;52.128;21.068;2023-08-21T03:32:48;20.90;;;15.40;;
5060;SDS011;2549;52.128;21.068;2023-08-21T03:35:15;19.93;;;13.60;;
5060;SDS011;2549;52.128;21.068;2023-08-21T03:37:42;17.40;;;15.50;;
5060;SDS011;2549;52.128;21.068;2023-08-21T03:40:09;19.57;;;14.40;;
5060;SDS011;2549;52.128;21.068;2023-08-21T03:42:36;22.23;;;15.70;;
5060;SDS011;2549;52.128;21.068;2023-08-21T03:45:03;21.20;;;14.43;;
5060;SDS011;2549;52.128;21.068;2023-08-21T03:47:31;17.80;;;13.37;;
5060;SDS011;2549;52.128;21.068;2023-08-21T03:49:58;21.60;;;15.13;;
5060;SDS011;2549;52.128;21.068;2023-08-21T03:52:25;16.03;;;13.60;;
5060;SDS011;2549;52.128;21.068;2023-08-21T03:54:51;16.87;;;14.37;;
5060;SDS011;2549;52.128;21.068;2023-08-21T03:57:18;18.50;;;15.90;;
5060;SDS011;2549;52.128;21.068;2023-08-21T03:59:45;19.80;;;16.33;;
5060;SDS011;2549;52.128;21.068;2023-08-21T04:02:12;20.70;;;15.50;;
5060;SDS011;2549;52.128;21.068;2023-08-21T04:04:39;23.60;;;15.47;;
5060;SDS011;2549;52.128;21.068;2023-08-21T04:07:06;17.03;;;13.87;;
5060;SDS011;2549;52.128;21.068;2023-08-21T04:09:32;22.00;;;15.30;;
5060;SDS011;2549;52.128;21.068;2023-08-21T04:11:59;16.00;;;14.30;;
5060;SDS011;2549;52.128;21.068;2023-08-21T04:14:26;31.93;;;15.30;;
5060;SDS011;2549;52.128;21.068;2023-08-21T04:16:53;19.77;;;15.67;;
5060;SDS011;2549;52.128;21.068;2023-08-21T04:19:20;16.67;;;14.87;;
5060;SDS011;2549;52.128;21.068;2023-08-21T04:21:47;17.67;;;14.57;;
5060;SDS011;2549;52.128;21.068;2023-08-21T04:24:13;18.90;;;15.67;;
5060;SDS011;2549;52.128;21.068;2023-08-21T04:26:40;20.83;;;16.77;;
5060;SDS011;2549;52.128;21.068;2023-08-21T04:29:07;25.20;;;16.00;;
5060;SDS011;2549;52.128;21.068;2023-08-21T04:31:34;17.90;;;14.53;;
5060;SDS011;2549;52.128;21.068;2023-08-21T04:34:01;17.80;;;15.70;;
5060;SDS011;2549;52.128;21.068;2023-08-21T04:36:28;19.57;;;13.57;;
5060;SDS011;2549;52.128;21.068;2023-08-21T04:38:55;24.23;;;15.93;;
5060;SDS011;2549;52.128;21.068;2023-08-21T04:41:22;17.10;;;15.30;;
5060;SDS011;2549;52.128;21.068;2023-08-21T04:43:49;21.30;;;16.77;;
5060;SDS011;2549;52.128;21.068;2023-08-21T04:46:16;20.47;;;14.47;;
5060;SDS011;2549;52.128;21.068;2023-08-21T04:48:43;18.03;;;14.30;;
5060;SDS011;2549;52.128;21.068;2023-08-21T04:51:10;18.50;;;14.57;;
5060;SDS011;2549;52.128;21.068;2023-08-21T04:53:36;23.60;;;16.03;;
5060;SDS011;2549;52.128;21.068;2023-08-21T04:56:03;17.07;;;14.87;;
5060;SDS011;2549;52.128;21.068;2023-08-21T04:58:30;19.50;;;16.47;;
5060;SDS011;2549;52.128;21.068;2023-08-21T05:00:57;17.90;;;15.80;;
5060;SDS011;2549;52.128;21.068;2023-08-21T05:03:26;16.70;;;14.90;;
5060;SDS011;2549;52.128;21.068;2023-08-21T05:05:53;17.17;;;14.40;;
5060;SDS011;2549;52.128;21.068;2023-08-21T05:08:21;23.07;;;15.10;;
5060;SDS011;2549;52.128;21.068;2023-08-21T05:10:56;24.77;;;16.37;;
5060;SDS011;2549;52.128;21.068;2023-08-21T05:13:24;21.73;;;15.77;;
5060;SDS011;2549;52.128;21.068;2023-08-21T05:15:55;18.97;;;14.80;;
5060;SDS011;2549;52.128;21.068;2023-08-21T05:18:24;18.10;;;15.43;;
5060;SDS011;2549;52.128;21.068;2023-08-21T05:20:53;18.63;;;14.93;;
5060;SDS011;2549;52.128;21.068;2023-08-21T05:23:20;21.50;;;16.23;;
5060;SDS011;2549;52.128;21.068;2023-08-21T05:25:48;19.63;;;15.47;;
5060;SDS011;2549;52.128;21.068;2023-08-21T05:28:15;21.57;;;14.90;;
5060;SDS011;2549;52.128;21.068;2023-08-21T05:30:42;17.40;;;14.50;;
5060;SDS011;2549;52.128;21.068;2023-08-21T05:33:09;16.17;;;14.00;;
5060;SDS011;2549;52.128;21.068;2023-08-21T05:35:36;16.80;;;15.00;;
5060;SDS011;2549;52.128;21.068;2023-08-21T05:38:03;17.93;;;14.43;;
5060;SDS011;2549;52.128;21.068;2023-08-21T05:40:30;16.33;;;14.63;;
5060;SDS011;2549;52.128;21.068;2023-08-21T05:42:57;26.70;;;15.37;;
5060;SDS011;2549;52.128;21.068;2023-08-21T05:45:24;15.87;;;14.17;;
5060;SDS011;2549;52.128;21.068;2023-08-21T05:47:51;19.10;;;16.33;;
5060;SDS011;2549;52.128;21.068;2023-08-21T05:50:18;17.50;;;15.27;;
5060;SDS011;2549;52.128;21.068;2023-08-21T05:52:45;18.70;;;13.93;;
5060;SDS011;2549;52.128;21.068;2023-08-21T05:55:12;16.47;;;12.70;;
5060;SDS011;2549;52.128;21.068;2023-08-21T05:57:39;14.47;;;12.97;;
5060;SDS011;2549;52.128;21.068;2023-08-21T06:00:06;21.77;;;14.57;;
5060;SDS011;2549;52.128;21.068;2023-08-21T06:02:35;21.40;;;14.10;;
5060;SDS011;2549;52.128;21.068;2023-08-21T06:05:03;20.37;;;15.57;;
5060;SDS011;2549;52.128;21.068;2023-08-21T06:07:30;18.97;;;14.37;;
5060;SDS011;2549;52.128;21.068;2023-08-21T06:09:58;16.00;;;13.97;;
5060;SDS011;2549;52.128;21.068;2023-08-21T06:12:25;17.00;;;13.87;;
5060;SDS011;2549;52.128;21.068;2023-08-21T06:14:52;22.13;;;14.90;;
5060;SDS011;2549;52.128;21.068;2023-08-21T06:17:19;17.00;;;14.33;;
5060;SDS011;2549;52.128;21.068;2023-08-21T06:19:46;19.77;;;14.90;;
5060;SDS011;2549;52.128;21.068;2023-08-21T06:22:13;20.30;;;15.43;;
5060;SDS011;2549;52.128;21.068;2023-08-21T06:24:41;18.93;;;15.13;;
5060;SDS011;2549;52.128;21.068;2023-08-21T06:27:08;19.67;;;14.63;;
5060;SDS011;2549;52.128;21.068;2023-08-21T06:29:35;15.90;;;14.23;;
5060;SDS011;2549;52.128;21.068;2023-08-21T06:32:03;23.53;;;16.53;;
5060;SDS011;2549;52.128;21.068;2023-08-21T06:34:30;16.50;;;14.83;;
5060;SDS011;2549;52.128;21.068;2023-08-21T06:36:57;18.57;;;15.57;;
5060;SDS011;2549;52.128;21.068;2023-08-21T06:39:25;20.13;;;15.93;;
5060;SDS011;2549;52.128;21.068;2023-08-21T06:41:52;22.47;;;16.60;;
5060;SDS011;2549;52.128;21.068;2023-08-21T06:44:19;21.83;;;14.77;;
5060;SDS011;2549;52.128;21.068;2023-08-21T06:46:46;17.13;;;14.17;;
5060;SDS011;2549;52.128;21.068;2023-08-21T06:49:14;21.17;;;15.00;;
5060;SDS011;2549;52.128;21.068;2023-08-21T06:51:40;16.33;;;13.87;;
5060;SDS011;2549;52.128;21.068;2023-08-21T06:54:07;22.23;;;15.57;;
5060;SDS011;2549;52.128;21.068;2023-08-21T06:56:34;18.00;;;13.97;;
5060;SDS011;2549;52.128;21.068;2023-08-21T06:59:01;15.50;;;12.93;;
5060;SDS011;2549;52.128;21.068;2023-08-21T07:01:28;19.93;;;15.80;;
5060;SDS011;2549;52.128;21.068;2023-08-21T07:03:55;20.73;;;15.03;;
5060;SDS011;2549;52.128;21.068;2023-08-21T07:06:22;17.63;;;15.73;;
5060;SDS011;2549;52.128;21.068;2023-08-21T07:08:48;24.03;;;16.20;;
5060;SDS011;2549;52.128;21.068;2023-08-21T07:11:15;19.87;;;16.10;;
5060;SDS011;2549;52.128;21.068;2023-08-21T07:13:43;19.97;;;15.33;;
5060;SDS011;2549;52.128;21.068;2023-08-21T07:16:10;17.80;;;13.57;;
5060;SDS011;2549;52.128;21.068;2023-08-21T07:18:37;16.60;;;14.80;;
5060;SDS011;2549;52.128;21.068;2023-08-21T07:21:05;17.70;;;15.00;;
5060;SDS011;2549;52.128;21.068;2023-08-21T07:23:52;18.90;;;15.43;;
5060;SDS011;2549;52.128;21.068;2023-08-21T07:26:18;16.53;;;14.80;;
5060;SDS011;2549;52.128;21.068;2023-08-21T07:28:45;17.40;;;15.57;;
5060;SDS011;2549;52.128;21.068;2023-08-21T07:31:12;26.40;;;14.77;;
5060;SDS011;2549;52.128;21.068;2023-08-21T07:33:39;22.13;;;16.07;;
5060;SDS011;2549;52.128;21.068;2023-08-21T07:36:06;25.37;;;17.27;;
5060;SDS011;2549;52.128;21.068;2023-08-21T07:38:33;19.73;;;14.77;;
5060;SDS011;2549;52.128;21.068;2023-08-21T07:41:04;24.53;;;15.53;;
5060;SDS011;2549;52.128;21.068;2023-08-21T07:43:33;20.20;;;16.77;;
5060;SDS011;2549;52.128;21.068;2023-08-21T07:46:04;17.70;;;14.50;;
5060;SDS011;2549;52.128;21.068;2023-08-21T07:48:31;23.00;;;14.90;;
5060;SDS011;2549;52.128;21.068;2023-08-21T07:50:59;17.43;;;14.40;;
5060;SDS011;2549;52.128;21.068;2023-08-21T07:53:26;15.73;;;14.03;;
5060;SDS011;2549;52.128;21.068;2023-08-21T07:55:53;23.77;;;14.90;;
5060;SDS011;2549;52.128;21.068;2023-08-21T07:58:20;24.00;;;14.87;;
5060;SDS011;2549;52.128;21.068;2023-08-21T08:00:47;16.90;;;15.10;;
5060;SDS011;2549;52.128;21.068;2023-08-21T08:03:14;19.70;;;15.47;;
5060;SDS011;2549;52.128;21.068;2023-08-21T08:05:42;17.93;;;14.57;;
5060;SDS011;2549;52.128;21.068;2023-08-21T08:08:20;17.70;;;13.40;;
5060;SDS011;2549;52.128;21.068;2023-08-21T08:10:47;15.57;;;13.93;;
5060;SDS011;2549;52.128;21.068;2023-08-21T08:13:13;15.43;;;13.90;;
5060;SDS011;2549;52.128;21.068;2023-08-21T08:15:40;15.13;;;13.53;;
5060;SDS011;2549;52.128;21.068;2023-08-21T08:18:10;16.43;;;13.93;;
5060;SDS011;2549;52.128;21.068;2023-08-21T08:20:38;15.37;;;13.67;;
5060;SDS011;2549;52.128;21.068;2023-08-21T08:23:05;15.30;;;13.70;;
5060;SDS011;2549;52.128;21.068;2023-08-21T08:25:32;14.50;;;11.93;;
5060;SDS011;2549;52.128;21.068;2023-08-21T08:27:59;19.80;;;16.47;;
5060;SDS011;2549;52.128;21.068;2023-08-21T08:30:26;18.03;;;14.67;;
5060;SDS011;2549;52.128;21.068;2023-08-21T08:32:53;16.70;;;15.00;;
5060;SDS011;2549;52.128;21.068;2023-08-21T08:35:20;18.70;;;15.93;;
5060;SDS011;2549;52.128;21.068;2023-08-21T08:37:48;21.23;;;14.97;;
5060;SDS011;2549;52.128;21.068;2023-08-21T08:40:14;18.93;;;15.73;;
5060;SDS011;2549;52.128;21.068;2023-08-21T08:42:41;22.23;;;13.47;;
5060;SDS011;2549;52.128;21.068;2023-08-21T08:45:08;16.83;;;14.00;;
5060;SDS011;2549;52.128;21.068;2023-08-21T08:47:39;14.93;;;13.30;;
5060;SDS011;2549;52.128;21.068;2023-08-21T08:50:08;13.70;;;11.67;;
5060;SDS011;2549;52.128;21.068;2023-08-21T08:52:38;14.93;;;13.00;;
5060;SDS011;2549;52.128;21.068;2023-08-21T08:55:07;16.30;;;13.37;;
5060;SDS011;2549;52.128;21.068;2023-08-21T08:57:34;15.33;;;13.47;;
5060;SDS011;2549;52.128;21.068;2023-08-21T09:00:02;21.10;;;13.67;;
5060;SDS011;2549;52.128;21.068;2023-08-21T09:02:30;16.97;;;14.00;;
5060;SDS011;2549;52.128;21.068;2023-08-21T09:04:58;14.50;;;12.63;;
5060;SDS011;2549;52.128;21.068;2023-08-21T09:07:25;19.67;;;14.80;;
5060;SDS011;2549;52.128;21.068;2023-08-21T09:09:52;13.00;;;11.67;;
5060;SDS011;2549;52.128;21.068;2023-08-21T09:12:19;19.10;;;13.70;;
5060;SDS011;2549;52.128;21.068;2023-08-21T09:14:47;18.67;;;12.67;;
5060;SDS011;2549;52.128;21.068;2023-08-21T09:17:14;14.43;;;12.40;;
5060;SDS011;2549;52.128;21.068;2023-08-21T09:19:42;15.17;;;12.30;;
5060;SDS011;2549;52.128;21.068;2023-08-21T09:22:10;13.23;;;11.77;;
5060;SDS011;2549;52.128;21.068;2023-08-21T09:24:39;16.17;;;11.50;;
5060;SDS011;2549;52.128;21.068;2023-08-21T09:27:13;12.30;;;11.03;;
5060;SDS011;2549;52.128;21.068;2023-08-21T09:29:42;11.90;;;9.57;;
5060;SDS011;2549;52.128;21.068;2023-08-21T09:32:09;13.70;;;10.50;;
5060;SDS011;2549;52.128;21.068;2023-08-21T09:34:36;11.73;;;10.40;;
5060;SDS011;2549;52.128;21.068;2023-08-21T09:37:07;11.40;;;9.77;;
5060;SDS011;2549;52.128;21.068;2023-08-21T09:39:36;14.20;;;8.60;;
5060;SDS011;2549;52.128;21.068;2023-08-21T09:42:06;13.73;;;8.43;;
5060;SDS011;2549;52.128;21.068;2023-08-21T09:44:37;8.57;;;7.67;;
5060;SDS011;2549;52.128;21.068;2023-08-21T09:47:09;10.07;;;7.80;;
5060;SDS011;2549;52.128;21.068;2023-08-21T09:49:38;10.40;;;7.63;;
5060;SDS011;2549;52.128;21.068;2023-08-21T09:52:06;8.30;;;7.43;;
5060;SDS011;2549;52.128;21.068;2023-08-21T09:54:39;10.63;;;7.40;;
5060;SDS011;2549;52.128;21.068;2023-08-21T09:57:08;8.33;;;7.37;;
5060;SDS011;2549;52.128;21.068;2023-08-21T09:59:37;8.07;;;7.27;;
5060;SDS011;2549;52.128;21.068;2023-08-21T10:02:06;7.97;;;7.30;;
5060;SDS011;2549;52.128;21.068;2023-08-21T10:04:35;9.50;;;7.03;;
5060;SDS011;2549;52.128;21.068;2023-08-21T10:07:05;6.63;;;6.03;;
5060;SDS011;2549;52.128;21.068;2023-08-21T10:09:35;7.43;;;6.73;;
5060;SDS011;2549;52.128;21.068;2023-08-21T10:12:02;8.17;;;5.60;;
5060;SDS011;2549;52.128;21.068;2023-08-21T10:14:30;8.20;;;5.77;;
5060;SDS011;2549;52.128;21.068;2023-08-21T10:16:57;7.90;;;5.37;;
5060;SDS011;2549;52.128;21.068;2023-08-21T10:19:25;6.93;;;5.57;;
5060;SDS011;2549;52.128;21.068;2023-08-21T10:21:57;6.60;;;5.70;;
5060;SDS011;2549;52.128;21.068;2023-08-21T10:24:26;8.43;;;5.40;;
5060;SDS011;2549;52.128;21.068;2023-08-21T10:26:57;7.10;;;5.93;;
5060;SDS011;2549;52.128;21.068;2023-08-21T10:29:24;6.00;;;5.20;;
5060;SDS011;2549;52.128;21.068;2023-08-21T10:32:01;5.50;;;5.00;;
5060;SDS011;2549;52.128;21.068;2023-08-21T10:34:36;5.20;;;4.80;;
5060;SDS011;2549;52.128;21.068;2023-08-21T10:37:08;11.23;;;4.83;;
5060;SDS011;2549;52.128;21.068;2023-08-21T10:39:38;5.63;;;5.00;;
5060;SDS011;2549;52.128;21.068;2023-08-21T10:42:21;6.70;;;4.63;;
5060;SDS011;2549;52.128;21.068;2023-08-21T10:45:11;5.00;;;4.17;;
5060;SDS011;2549;52.128;21.068;2023-08-21T10:47:39;5.07;;;4.07;;
5060;SDS011;2549;52.128;21.068;2023-08-21T10:50:06;4.60;;;4.20;;
5060;SDS011;2549;52.128;21.068;2023-08-21T10:55:04;4.53;;;4.13;;
5060;SDS011;2549;52.128;21.068;2023-08-21T10:57:32;4.13;;;3.83;;
5060;SDS011;2549;52.128;21.068;2023-08-21T11:02:31;7.83;;;4.70;;
5060;SDS011;2549;52.128;21.068;2023-08-21T11:05:00;4.17;;;3.87;;
5060;SDS011;2549;52.128;21.068;2023-08-21T11:07:29;6.63;;;4.77;;
5060;SDS011;2549;52.128;21.068;2023-08-21T11:10:03;4.03;;;3.73;;
5060;SDS011;2549;52.128;21.068;2023-08-21T11:12:30;4.00;;;3.70;;
5060;SDS011;2549;52.128;21.068;2023-08-21T11:14:57;4.30;;;4.00;;
5060;SDS011;2549;52.128;21.068;2023-08-21T11:17:24;5.47;;;4.97;;
5060;SDS011;2549;52.128;21.068;2023-08-21T11:19:50;4.57;;;3.63;;
5060;SDS011;2549;52.128;21.068;2023-08-21T11:22:18;3.13;;;2.93;;
5060;SDS011;2549;52.128;21.068;2023-08-21T11:24:48;5.47;;;3.63;;
5060;SDS011;2549;52.128;21.068;2023-08-21T11:27:17;4.07;;;3.30;;
5060;SDS011;2549;52.128;21.068;2023-08-21T11:29:46;3.67;;;3.43;;
5060;SDS011;2549;52.128;21.068;2023-08-21T11:32:17;4.40;;;4.10;;
5060;SDS011;2549;52.128;21.068;2023-08-21T11:34:49;4.00;;;3.70;;
5060;SDS011;2549;52.128;21.068;2023-08-21T11:37:18;3.90;;;3.30;;
5060;SDS011;2549;52.128;21.068;2023-08-21T11:42:18;4.80;;;3.17;;
5060;SDS011;2549;52.128;21.068;2023-08-21T11:44:54;4.53;;;3.90;;
5060;SDS011;2549;52.128;21.068;2023-08-21T11:47:22;4.13;;;3.73;;
5060;SDS011;2549;52.128;21.068;2023-08-21T11:49:50;7.20;;;3.47;;
5060;SDS011;2549;52.128;21.068;2023-08-21T11:52:18;5.00;;;3.60;;
5060;SDS011;2549;52.128;21.068;2023-08-21T11:54:53;3.90;;;3.60;;
5060;SDS011;2549;52.128;21.068;2023-08-21T11:57:20;4.73;;;3.73;;
5060;SDS011;2549;52.128;21.068;2023-08-21T11:59:54;4.30;;;3.47;;
5060;SDS011;2549;52.128;21.068;2023-08-21T12:02:22;6.00;;;2.90;;
5060;SDS011;2549;52.128;21.068;2023-08-21T12:04:54;3.60;;;3.00;;
5060;SDS011;2549;52.128;21.068;2023-08-21T12:07:28;2.70;;;2.60;;
5060;SDS011;2549;52.128;21.068;2023-08-21T12:09:55;3.47;;;3.17;;
5060;SDS011;2549;52.128;21.068;2023-08-21T12:12:24;3.50;;;3.23;;
5060;SDS011;2549;52.128;21.068;2023-08-21T12:14:51;4.53;;;3.27;;
5060;SDS011;2549;52.128;21.068;2023-08-21T12:17:18;3.53;;;3.23;;
5060;SDS011;2549;52.128;21.068;2023-08-21T12:19:45;7.83;;;3.30;;
5060;SDS011;2549;52.128;21.068;2023-08-21T12:22:12;3.63;;;3.33;;
5060;SDS011;2549;52.128;21.068;2023-08-21T12:24:38;3.47;;;3.23;;
5060;SDS011;2549;52.128;21.068;2023-08-21T12:27:05;2.70;;;2.43;;
5060;SDS011;2549;52.128;21.068;2023-08-21T12:29:32;3.47;;;3.17;;
5060;SDS011;2549;52.128;21.068;2023-08-21T12:31:59;4.13;;;3.03;;
5060;SDS011;2549;52.128;21.068;2023-08-21T12:34:26;4.23;;;3.87;;
5060;SDS011;2549;52.128;21.068;2023-08-21T12:36:53;6.40;;;2.90;;
5060;SDS011;2549;52.128;21.068;2023-08-21T12:39:20;2.50;;;2.23;;
5060;SDS011;2549;52.128;21.068;2023-08-21T12:41:48;3.20;;;2.87;;
5060;SDS011;2549;52.128;21.068;2023-08-21T12:44:15;3.27;;;3.07;;
5060;SDS011;2549;52.128;21.068;2023-08-21T12:46:41;5.23;;;2.90;;
5060;SDS011;2549;52.128;21.068;2023-08-21T12:49:09;4.30;;;2.67;;
5060;SDS011;2549;52.128;21.068;2023-08-21T12:51:36;6.80;;;2.70;;
5060;SDS011;2549;52.128;21.068;2023-08-21T12:54:03;3.03;;;2.47;;
5060;SDS011;2549;52.128;21.068;2023-08-21T12:56:30;3.87;;;2.37;;
5060;SDS011;2549;52.128;21.068;2023-08-21T12:58:57;2.80;;;2.27;;
5060;SDS011;2549;52.128;21.068;2023-08-21T13:01:25;2.70;;;2.33;;
5060;SDS011;2549;52.128;21.068;2023-08-21T13:03:53;6.53;;;3.03;;
5060;SDS011;2549;52.128;21.068;2023-08-21T13:06:20;3.63;;;2.57;;
5060;SDS011;2549;52.128;21.068;2023-08-21T13:08:47;6.90;;;3.00;;
5060;SDS011;2549;52.128;21.068;2023-08-21T13:11:14;2.30;;;2.10;;
5060;SDS011;2549;52.128;21.068;2023-08-21T13:13:41;3.40;;;2.60;;
5060;SDS011;2549;52.128;21.068;2023-08-21T13:16:08;4.87;;;2.37;;
5060;SDS011;2549;52.128;21.068;2023-08-21T13:18:35;2.10;;;2.00;;
5060;SDS011;2549;52.128;21.068;2023-08-21T13:21:02;2.23;;;2.00;;
5060;SDS011;2549;52.128;21.068;2023-08-21T13:23:30;2.23;;;2.13;;
5060;SDS011;2549;52.128;21.068;2023-08-21T13:25:57;2.70;;;2.50;;
5060;SDS011;2549;52.128;21.068;2023-08-21T13:28:24;2.30;;;2.10;;
5060;SDS011;2549;52.128;21.068;2023-08-21T13:30:51;7.17;;;2.10;;
5060;SDS011;2549;52.128;21.068;2023-08-21T13:33:19;1.63;;;1.53;;
5060;SDS011;2549;52.128;21.068;2023-08-21T13:35:46;4.90;;;2.60;;
5060;SDS011;2549;52.128;21.068;2023-08-21T13:38:13;3.43;;;1.70;;
5060;SDS011;2549;52.128;21.068;2023-08-21T13:40:40;3.87;;;1.60;;
5060;SDS011;2549;52.128;21.068;2023-08-21T13:43:07;2.67;;;2.07;;
5060;SDS011;2549;52.128;21.068;2023-08-21T13:45:37;4.07;;;2.33;;
5060;SDS011;2549;52.128;21.068;2023-08-21T13:48:04;2.20;;;2.03;;
5060;SDS011;2549;52.128;21.068;2023-08-21T13:50:31;4.83;;;2.13;;
5060;SDS011;2549;52.128;21.068;2023-08-21T13:52:58;2.47;;;1.80;;
5060;SDS011;2549;52.128;21.068;2023-08-21T13:55:26;1.70;;;1.70;;
5060;SDS011;2549;52.128;21.068;2023-08-21T13:57:53;4.47;;;1.97;;
5060;SDS011;2549;52.128;21.068;2023-08-21T14:00:20;1.83;;;1.73;;
5060;SDS011;2549;52.128;21.068;2023-08-21T14:02:48;1.70;;;1.53;;
5060;SDS011;2549;52.128;21.068;2023-08-21T14:05:16;2.00;;;1.50;;
5060;SDS011;2549;52.128;21.068;2023-08-21T14:07:44;2.60;;;2.30;;
5060;SDS011;2549;52.128;21.068;2023-08-21T14:10:11;1.87;;;1.77;;
5060;SDS011;2549;52.128;21.068;2023-08-21T14:12:41;1.43;;;1.33;;
5060;SDS011;2549;52.128;21.068;2023-08-21T14:15:08;2.90;;;2.50;;
5060;SDS011;2549;52.128;21.068;2023-08-21T14:17:36;2.53;;;2.30;;
5060;SDS011;2549;52.128;21.068;2023-08-21T14:20:04;4.63;;;1.80;;
5060;SDS011;2549;52.128;21.068;2023-08-21T14:22:31;1.60;;;1.50;;
5060;SDS011;2549;52.128;21.068;2023-08-21T14:24:58;2.37;;;2.17;;
5060;SDS011;2549;52.128;21.068;2023-08-21T14:27:25;2.27;;;1.73;;
5060;SDS011;2549;52.128;21.068;2023-08-21T14:29:52;2.03;;;1.93;;
5060;SDS011;2549;52.128;21.068;2023-08-21T14:32:19;1.80;;;1.53;;
5060;SDS011;2549;52.128;21.068;2023-08-21T14:34:46;2.00;;;1.63;;
5060;SDS011;2549;52.128;21.068;2023-08-21T14:37:13;3.13;;;1.60;;
5060;SDS011;2549;52.128;21.068;2023-08-21T14:39:42;1.73;;;1.63;;
5060;SDS011;2549;52.128;21.068;2023-08-21T14:42:09;6.73;;;2.53;;
5060;SDS011;2549;52.128;21.068;2023-08-21T14:44:37;9.27;;;1.70;;
5060;SDS011;2549;52.128;21.068;2023-08-21T14:47:04;2.40;;;2.20;;
5060;SDS011;2549;52.128;21.068;2023-08-21T14:49:33;2.40;;;1.83;;
5060;SDS011;2549;52.128;21.068;2023-08-21T14:52:00;1.47;;;1.37;;
5060;SDS011;2549;52.128;21.068;2023-08-21T14:54:27;1.63;;;1.40;;
5060;SDS011;2549;52.128;21.068;2023-08-21T14:56:54;9.00;;;1.70;;
5060;SDS011;2549;52.128;21.068;2023-08-21T14:59:21;2.43;;;1.40;;